createdAt,value
2018-07-26T00:00:08.668Z,24.06
2018-07-26T00:02:36.293Z,24.23
2018-07-26T00:05:04.153Z,24.30
2018-07-26T00:07:31.868Z,24.14
2018-07-26T00:10:00.549Z,24.06
2018-07-26T00:12:28.186Z,24.01
2018-07-26T00:14:55.861Z,23.99
2018-07-26T00:17:23.501Z,24.00
2018-07-26T00:19:51.204Z,24.02
2018-07-26T00:22:18.817Z,23.95
2018-07-26T00:24:46.486Z,23.95
2018-07-26T00:27:14.162Z,23.95
2018-07-26T00:29:41.749Z,23.81
2018-07-26T00:32:09.464Z,23.78
2018-07-26T00:34:37.117Z,23.62
2018-07-26T00:37:04.978Z,23.68
2018-07-26T00:39:32.660Z,23.73
2018-07-26T00:42:00.238Z,23.78
2018-07-26T00:44:27.861Z,23.75
2018-07-26T00:46:55.536Z,23.65
2018-07-26T00:49:23.116Z,23.49
2018-07-26T00:51:50.787Z,23.45
2018-07-26T00:54:18.377Z,23.32
2018-07-26T00:56:46.012Z,23.32
2018-07-26T00:59:13.626Z,23.29
2018-07-26T01:01:41.211Z,23.41
2018-07-26T01:04:08.917Z,23.18
2018-07-26T01:06:36.541Z,23.07
2018-07-26T01:09:08.493Z,23.14
2018-07-26T01:11:36.278Z,23.32
2018-07-26T01:14:03.997Z,23.48
2018-07-26T01:16:31.706Z,23.38
2018-07-26T01:18:59.350Z,23.29
2018-07-26T01:21:26.957Z,23.41
2018-07-26T01:23:54.621Z,23.27
2018-07-26T01:26:22.292Z,23.32
2018-07-26T01:28:49.928Z,23.30
2018-07-26T01:31:17.589Z,23.14
2018-07-26T01:33:45.162Z,22.91
2018-07-26T01:36:12.761Z,23.04
2018-07-26T01:38:40.568Z,23.00
2018-07-26T01:41:08.257Z,22.88
2018-07-26T01:44:39.352Z,22.61
2018-07-26T01:47:07.101Z,22.52
2018-07-26T01:49:34.732Z,22.61
2018-07-26T01:52:02.423Z,22.69
2018-07-26T01:54:30.061Z,22.62
2018-07-26T01:56:57.688Z,22.44
2018-07-26T01:59:25.414Z,22.62
2018-07-26T02:01:53.026Z,22.66
2018-07-26T02:04:20.697Z,22.78
2018-07-26T02:06:48.324Z,22.84
2018-07-26T02:09:15.920Z,22.76
2018-07-26T02:11:43.668Z,22.68
2018-07-26T02:14:24.120Z,22.59
2018-07-26T02:16:51.745Z,22.61
2018-07-26T02:19:19.377Z,22.43
2018-07-26T02:21:46.970Z,22.42
2018-07-26T02:24:14.664Z,22.28
2018-07-26T02:26:42.373Z,22.37
2018-07-26T02:29:10.049Z,22.33
2018-07-26T02:31:37.715Z,22.41
2018-07-26T02:34:05.433Z,22.46
2018-07-26T02:36:33.106Z,22.38
2018-07-26T02:39:01.041Z,22.43
2018-07-26T02:41:28.648Z,22.19
2018-07-26T02:43:56.325Z,22.05
2018-07-26T02:46:24.000Z,22.11
2018-07-26T02:48:51.673Z,22.08
2018-07-26T02:53:46.487Z,21.87
2018-07-26T02:56:14.247Z,21.90
2018-07-26T02:58:41.845Z,21.96
2018-07-26T03:01:09.460Z,21.92
2018-07-26T03:03:37.082Z,21.96
2018-07-26T03:06:04.785Z,21.91
2018-07-26T03:08:32.383Z,21.80
2018-07-26T03:11:00.133Z,21.80
2018-07-26T03:13:27.808Z,21.88
2018-07-26T03:15:55.528Z,21.92
2018-07-26T03:18:23.156Z,22.10
2018-07-26T03:20:50.889Z,22.12
2018-07-26T03:23:18.482Z,22.12
2018-07-26T03:25:46.102Z,22.09
2018-07-26T03:28:13.776Z,22.12
2018-07-26T03:30:41.516Z,21.98
2018-07-26T03:33:09.141Z,21.87
2018-07-26T03:35:36.809Z,21.87
2018-07-26T03:38:04.885Z,21.81
2018-07-26T03:40:32.581Z,21.70
2018-07-26T03:43:00.192Z,21.57
2018-07-26T03:45:27.826Z,21.61
2018-07-26T03:47:55.553Z,21.64
2018-07-26T03:50:23.201Z,21.73
2018-07-26T03:52:50.946Z,21.78
2018-07-26T03:55:18.469Z,21.86
2018-07-26T03:57:46.119Z,21.77
2018-07-26T04:00:13.761Z,21.70
2018-07-26T04:02:41.469Z,21.89
2018-07-26T04:05:09.104Z,21.98
2018-07-26T04:07:36.788Z,22.10
2018-07-26T04:10:04.716Z,22.09
2018-07-26T04:12:32.382Z,21.94
2018-07-26T04:15:00.035Z,21.63
2018-07-26T04:17:27.709Z,21.57
2018-07-26T04:19:56.412Z,21.45
2018-07-26T04:22:24.092Z,21.56
2018-07-26T04:24:51.697Z,21.68
2018-07-26T04:27:19.392Z,21.87
2018-07-26T04:29:47.081Z,21.77
2018-07-26T04:32:14.986Z,21.85
2018-07-26T04:34:42.669Z,21.94
2018-07-26T04:37:10.311Z,21.76
2018-07-26T04:39:38.613Z,21.88
2018-07-26T04:42:06.353Z,22.01
2018-07-26T04:44:34.046Z,21.83
2018-07-26T04:47:01.770Z,21.78
2018-07-26T04:49:29.398Z,22.01
2018-07-26T04:51:57.055Z,21.87
2018-07-26T04:54:24.716Z,21.94
2018-07-26T04:56:52.376Z,21.89
2018-07-26T04:59:21.019Z,21.72
2018-07-26T05:01:48.901Z,21.63
2018-07-26T05:04:16.561Z,21.75
2018-07-26T05:06:44.241Z,21.93
2018-07-26T05:09:12.544Z,21.93
2018-07-26T05:11:40.501Z,21.77
2018-07-26T05:14:08.213Z,21.79
2018-07-26T05:16:36.052Z,21.88
2018-07-26T05:19:04.027Z,22.06
2018-07-26T05:21:31.866Z,22.25
2018-07-26T05:23:59.951Z,22.42
2018-07-26T05:26:27.866Z,22.43
2018-07-26T05:28:55.525Z,22.50
2018-07-26T05:31:23.316Z,22.57
2018-07-26T05:33:50.971Z,22.78
2018-07-26T05:36:18.701Z,23.08
2018-07-26T05:38:46.346Z,23.34
2018-07-26T05:41:14.001Z,23.39
2018-07-26T05:43:41.656Z,23.48
2018-07-26T05:46:09.315Z,23.87
2018-07-26T05:48:36.997Z,23.57
2018-07-26T05:51:04.782Z,23.56
2018-07-26T05:53:32.448Z,23.72
2018-07-26T05:56:00.170Z,24.22
2018-07-26T05:58:27.854Z,23.89
2018-07-26T06:00:55.606Z,23.92
2018-07-26T06:03:23.357Z,23.86
2018-07-26T06:05:51.015Z,23.93
2018-07-26T06:08:18.654Z,24.31
2018-07-26T06:10:46.359Z,24.76
2018-07-26T06:13:13.979Z,24.98
2018-07-26T06:15:41.677Z,25.54
2018-07-26T06:18:09.685Z,25.45
2018-07-26T06:20:37.345Z,26.12
2018-07-26T06:23:05.366Z,26.28
2018-07-26T06:25:33.001Z,26.46
2018-07-26T06:28:00.685Z,26.93
2018-07-26T06:30:28.329Z,26.93
2018-07-26T06:32:56.391Z,27.24
2018-07-26T06:35:24.038Z,26.75
2018-07-26T06:37:51.666Z,27.63
2018-07-26T06:40:19.353Z,27.90
2018-07-26T06:42:47.125Z,28.59
2018-07-26T06:45:14.817Z,28.61
2018-07-26T06:47:42.510Z,28.19
2018-07-26T06:50:11.542Z,27.43
2018-07-26T06:52:39.577Z,28.17
2018-07-26T06:55:07.377Z,28.41
2018-07-26T06:57:35.050Z,28.02
2018-07-26T07:00:04.938Z,28.51
2018-07-26T07:02:32.669Z,28.81
2018-07-26T07:05:00.309Z,29.18
2018-07-26T07:07:28.014Z,28.91
2018-07-26T07:09:55.646Z,29.00
2018-07-26T07:12:23.346Z,29.04
2018-07-26T07:14:51.169Z,29.11
2018-07-26T07:17:18.850Z,29.41
2018-07-26T07:19:46.601Z,29.63
2018-07-26T07:22:14.394Z,30.16
2018-07-26T07:24:42.175Z,30.55
2018-07-26T07:27:09.903Z,30.93
2018-07-26T07:29:37.549Z,31.03
2018-07-26T07:32:05.338Z,31.13
2018-07-26T07:34:33.040Z,31.50
2018-07-26T07:37:00.690Z,31.64
2018-07-26T07:39:28.410Z,31.76
2018-07-26T07:41:56.129Z,31.57
2018-07-26T07:44:23.873Z,31.73
2018-07-26T07:46:52.817Z,31.11
2018-07-26T07:49:20.453Z,31.16
2018-07-26T07:51:48.240Z,30.86
2018-07-26T07:54:16.589Z,31.69
2018-07-26T07:56:44.325Z,32.28
2018-07-26T07:59:12.159Z,32.42
2018-07-26T08:01:46.721Z,32.69
2018-07-26T08:04:14.409Z,32.38
2018-07-26T08:06:42.890Z,32.69
2018-07-26T08:09:11.345Z,33.06
2018-07-26T08:11:39.198Z,33.25
2018-07-26T08:14:07.606Z,33.28
2018-07-26T08:16:35.309Z,33.25
2018-07-26T08:19:02.982Z,33.68
2018-07-26T08:21:30.686Z,33.70
2018-07-26T08:23:58.384Z,33.82
2018-07-26T08:26:26.135Z,34.06
2018-07-26T08:29:02.105Z,34.08
2018-07-26T08:31:29.854Z,34.30
2018-07-26T08:33:57.522Z,34.28
2018-07-26T08:36:25.305Z,34.32
2018-07-26T08:38:52.965Z,34.37
2018-07-26T08:41:20.849Z,34.51
2018-07-26T08:43:48.589Z,34.32
2018-07-26T08:46:16.357Z,34.27
2018-07-26T08:48:44.124Z,34.21
2018-07-26T08:51:11.896Z,34.34
2018-07-26T08:53:39.659Z,34.25
2018-07-26T08:56:07.666Z,34.13
2018-07-26T08:58:35.512Z,34.16
2018-07-26T09:01:03.397Z,34.23
2018-07-26T09:03:31.157Z,34.21
2018-07-26T09:05:59.469Z,34.32
2018-07-26T09:08:27.342Z,34.40
2018-07-26T09:10:55.107Z,34.43
2018-07-26T09:13:22.909Z,34.58
2018-07-26T09:15:50.526Z,34.62
2018-07-26T09:20:58.290Z,34.76
2018-07-26T09:23:26.150Z,34.82
2018-07-26T09:25:53.862Z,34.81
2018-07-26T09:28:22.150Z,35.02
2018-07-26T09:30:52.914Z,35.20
2018-07-26T09:33:20.670Z,35.26
2018-07-26T09:35:48.328Z,35.51
2018-07-26T09:38:16.255Z,35.39
2018-07-26T09:40:44.214Z,35.42
2018-07-26T09:43:11.891Z,35.46
2018-07-26T09:45:39.641Z,35.42
2018-07-26T09:48:07.438Z,35.19
2018-07-26T09:50:35.141Z,35.26
2018-07-26T09:53:02.918Z,35.41
2018-07-26T09:55:30.618Z,35.66
2018-07-26T09:57:58.332Z,35.83
2018-07-26T10:00:31.755Z,35.92
2018-07-26T10:02:59.446Z,35.91
2018-07-26T10:05:27.243Z,35.94
2018-07-26T10:07:54.927Z,35.97
2018-07-26T10:10:50.978Z,35.96
2018-07-26T10:13:18.706Z,35.84
2018-07-26T10:15:46.423Z,35.87
2018-07-26T10:18:14.135Z,36.09
2018-07-26T10:20:41.910Z,36.21
2018-07-26T10:23:09.655Z,36.20
2018-07-26T10:25:37.378Z,36.45
2018-07-26T10:28:05.391Z,36.58
2018-07-26T10:30:33.110Z,36.65
2018-07-26T10:33:00.822Z,36.90
2018-07-26T10:35:28.503Z,36.61
2018-07-26T10:37:56.196Z,36.87
2018-07-26T10:40:24.385Z,37.10
2018-07-26T10:42:52.174Z,37.02
2018-07-26T10:45:19.874Z,37.16
2018-07-26T10:47:47.582Z,37.14
2018-07-26T10:50:15.298Z,36.75
2018-07-26T10:52:43.088Z,36.85
2018-07-26T10:55:10.770Z,36.91
2018-07-26T10:57:38.642Z,37.17
2018-07-26T11:00:07.708Z,37.19
2018-07-26T11:02:35.751Z,37.12
2018-07-26T11:05:04.510Z,36.77
2018-07-26T11:07:32.231Z,36.95
2018-07-26T11:10:00.191Z,36.94
2018-07-26T11:12:27.949Z,36.73
2018-07-26T11:15:05.425Z,36.87
2018-07-26T11:17:33.108Z,36.96
2018-07-26T11:20:00.911Z,36.91
2018-07-26T11:22:28.659Z,37.08
2018-07-26T11:24:56.402Z,36.98
2018-07-26T11:27:25.290Z,36.88
2018-07-26T11:29:53.123Z,37.14
2018-07-26T11:32:21.014Z,37.18
2018-07-26T11:34:48.722Z,37.00
2018-07-26T11:37:16.519Z,37.05
2018-07-26T11:39:44.302Z,37.00
2018-07-26T11:42:12.013Z,37.13
2018-07-26T11:44:39.760Z,37.33
2018-07-26T11:47:07.682Z,37.40
2018-07-26T11:49:35.607Z,37.60
2018-07-26T11:52:03.473Z,37.91
2018-07-26T11:54:31.153Z,38.10
2018-07-26T11:56:58.945Z,37.94
2018-07-26T11:59:26.714Z,38.17
2018-07-26T12:01:54.524Z,38.32
2018-07-26T12:04:22.298Z,38.39
2018-07-26T12:06:49.991Z,38.37
2018-07-26T12:09:17.793Z,38.47
2018-07-26T12:11:45.532Z,39.33
2018-07-26T12:14:13.252Z,39.38
2018-07-26T12:16:40.934Z,39.94
2018-07-26T12:19:08.664Z,40.19
2018-07-26T12:21:36.378Z,40.94
2018-07-26T12:24:04.180Z,39.76
2018-07-26T12:26:31.898Z,40.41
2018-07-26T12:28:59.701Z,40.08
2018-07-26T12:31:27.419Z,40.76
2018-07-26T12:33:55.128Z,41.10
2018-07-26T12:36:22.882Z,39.73
2018-07-26T12:38:50.577Z,40.21
2018-07-26T12:41:18.435Z,40.85
2018-07-26T12:43:46.305Z,41.90
2018-07-26T12:46:14.011Z,42.03
2018-07-26T12:48:42.599Z,41.65
2018-07-26T12:51:10.344Z,42.16
2018-07-26T12:53:38.084Z,41.87
2018-07-26T12:56:05.893Z,41.65
2018-07-26T12:58:33.611Z,41.77
2018-07-26T13:01:01.396Z,41.44
2018-07-26T13:03:29.126Z,40.20
2018-07-26T13:05:56.963Z,40.22
2018-07-26T13:08:24.727Z,39.62
2018-07-26T13:10:52.482Z,38.86
2018-07-26T13:13:20.190Z,38.61
2018-07-26T13:15:47.951Z,38.49
2018-07-26T13:18:15.707Z,38.39
2018-07-26T13:20:43.635Z,38.31
2018-07-26T13:23:11.310Z,38.41
2018-07-26T13:25:39.191Z,38.75
2018-07-26T13:28:06.927Z,39.10
2018-07-26T13:30:34.610Z,39.16
2018-07-26T13:33:02.351Z,38.92
2018-07-26T13:35:30.056Z,38.09
2018-07-26T13:37:57.918Z,37.38
2018-07-26T13:40:25.851Z,37.47
2018-07-26T13:42:53.802Z,37.50
2018-07-26T13:45:21.627Z,37.27
2018-07-26T13:47:49.486Z,36.65
2018-07-26T13:50:17.202Z,36.88
2018-07-26T13:52:44.981Z,36.77
2018-07-26T13:55:12.686Z,36.40
2018-07-26T13:57:40.562Z,36.50
2018-07-26T14:00:08.433Z,36.64
2018-07-26T14:02:36.254Z,36.66
2018-07-26T14:05:04.127Z,36.82
2018-07-26T14:07:31.889Z,37.29
2018-07-26T14:09:59.614Z,37.20
2018-07-26T14:12:27.442Z,37.14
2018-07-26T14:14:55.577Z,36.96
2018-07-26T14:17:23.539Z,36.96
2018-07-26T14:19:51.411Z,37.21
2018-07-26T14:22:19.367Z,37.32
2018-07-26T14:24:47.203Z,37.14
2018-07-26T14:27:15.108Z,36.57
2018-07-26T14:29:43.205Z,36.20
2018-07-26T14:32:11.164Z,36.20
2018-07-26T14:34:38.885Z,36.21
2018-07-26T14:37:06.776Z,36.31
2018-07-26T14:39:34.738Z,36.41
2018-07-26T14:42:02.648Z,36.76
2018-07-26T14:44:30.423Z,36.82
2018-07-26T14:46:58.106Z,37.02
2018-07-26T14:49:26.092Z,36.61
2018-07-26T14:51:53.866Z,36.78
2018-07-26T14:54:22.153Z,37.01
2018-07-26T14:56:49.822Z,36.71
2018-07-26T14:59:17.656Z,36.74
2018-07-26T15:01:45.365Z,36.70
2018-07-26T15:04:13.231Z,36.75
2018-07-26T15:06:41.167Z,36.68
2018-07-26T15:09:09.661Z,36.74
2018-07-26T15:11:37.669Z,36.82
2018-07-26T15:14:05.391Z,36.80
2018-07-26T15:16:33.243Z,36.87
2018-07-26T15:19:00.959Z,36.68
2018-07-26T15:21:28.891Z,36.39
2018-07-26T15:23:59.346Z,36.15
2018-07-26T15:26:27.335Z,36.20
2018-07-26T15:28:55.552Z,36.34
2018-07-26T15:31:23.372Z,36.24
2018-07-26T15:33:51.519Z,36.26
2018-07-26T15:36:19.537Z,36.25
2018-07-26T15:38:47.350Z,36.30
2018-07-26T15:41:15.302Z,36.26
2018-07-26T15:43:43.258Z,36.24
2018-07-26T15:46:11.025Z,36.35
2018-07-26T15:48:39.018Z,36.49
2018-07-26T15:51:06.779Z,36.57
2018-07-26T15:53:34.534Z,36.53
2018-07-26T15:56:02.439Z,36.60
2018-07-26T15:58:30.173Z,36.21
2018-07-26T16:00:58.178Z,36.28
2018-07-26T16:03:25.987Z,36.21
2018-07-26T16:05:53.866Z,36.17
2018-07-26T16:08:22.440Z,36.02
2018-07-26T16:10:52.495Z,35.90
2018-07-26T16:16:17.228Z,36.18
2018-07-26T16:18:44.894Z,36.11
2018-07-26T16:21:12.540Z,36.32
2018-07-26T16:23:40.211Z,36.15
2018-07-26T16:26:08.086Z,36.30
2018-07-26T16:28:35.803Z,36.25
2018-07-26T16:31:03.536Z,36.17
2018-07-26T16:33:31.356Z,36.23
2018-07-26T16:35:59.050Z,36.10
2018-07-26T16:38:26.685Z,36.30
2018-07-26T16:40:54.427Z,36.22
2018-07-26T16:43:22.163Z,36.24
2018-07-26T16:45:49.920Z,36.18
2018-07-26T16:48:17.624Z,36.20
2018-07-26T16:50:45.309Z,36.21
2018-07-26T16:53:13.013Z,36.20
2018-07-26T16:55:40.626Z,36.00
2018-07-26T16:58:08.290Z,36.01
2018-07-26T17:00:35.950Z,35.92
2018-07-26T17:03:03.594Z,35.61
2018-07-26T17:05:31.221Z,35.61
2018-07-26T17:07:59.004Z,35.53
2018-07-26T17:10:36.050Z,35.52
2018-07-26T17:13:03.710Z,35.35
2018-07-26T17:15:31.341Z,35.40
2018-07-26T17:17:59.022Z,35.38
2018-07-26T17:20:26.719Z,35.38
2018-07-26T17:22:54.376Z,35.30
2018-07-26T17:25:25.107Z,35.39
2018-07-26T17:27:53.981Z,35.32
2018-07-26T17:30:21.683Z,35.05
2018-07-26T17:32:49.529Z,35.03
2018-07-26T17:35:17.442Z,34.83
2018-07-26T17:37:45.582Z,34.84
2018-07-26T17:40:13.648Z,34.81
2018-07-26T17:42:41.222Z,34.90
2018-07-26T17:45:10.152Z,34.82
2018-07-26T17:47:37.981Z,34.96
2018-07-26T17:50:06.937Z,34.92
2018-07-26T17:52:34.569Z,34.84
2018-07-26T17:55:02.477Z,34.83
2018-07-26T17:57:30.242Z,34.77
2018-07-26T17:59:57.917Z,34.69
2018-07-26T18:02:25.545Z,34.68
2018-07-26T18:04:53.178Z,34.55
2018-07-26T18:07:20.797Z,34.35
2018-07-26T18:09:48.526Z,34.20
2018-07-26T18:12:16.236Z,34.17
2018-07-26T18:14:43.878Z,33.95
2018-07-26T18:17:11.550Z,33.63
2018-07-26T18:19:39.335Z,33.71
2018-07-26T18:22:07.015Z,33.62
2018-07-26T18:24:34.641Z,33.77
2018-07-26T18:27:02.389Z,33.74
2018-07-26T18:29:30.063Z,33.71
2018-07-26T18:31:57.834Z,33.61
2018-07-26T18:34:25.504Z,33.60
2018-07-26T18:36:53.137Z,33.46
2018-07-26T18:39:20.793Z,33.45
2018-07-26T18:41:48.430Z,33.39
2018-07-26T18:44:16.362Z,33.29
2018-07-26T18:46:43.865Z,33.21
2018-07-26T18:49:11.554Z,33.16
2018-07-26T18:51:39.258Z,33.05
2018-07-26T18:54:07.068Z,33.06
2018-07-26T18:56:34.737Z,33.00
2018-07-26T18:59:02.533Z,32.97
2018-07-26T19:01:30.289Z,32.83
2018-07-26T19:03:57.941Z,32.81
2018-07-26T19:06:25.568Z,32.64
2018-07-26T19:08:53.230Z,32.54
2018-07-26T19:11:20.993Z,32.51
2018-07-26T19:13:48.694Z,32.53
2018-07-26T19:16:16.341Z,32.53
2018-07-26T19:18:44.145Z,32.44
2018-07-26T19:21:11.942Z,32.43
2018-07-26T19:23:39.638Z,32.35
2018-07-26T19:26:07.371Z,32.35
2018-07-26T19:28:35.098Z,32.20
2018-07-26T19:31:02.809Z,32.10
2018-07-26T19:33:30.410Z,32.05
2018-07-26T19:35:58.054Z,32.03
2018-07-26T19:38:25.691Z,32.00
2018-07-26T19:40:53.290Z,31.89
2018-07-26T19:43:20.937Z,31.81
2018-07-26T19:45:48.573Z,31.64
2018-07-26T19:48:16.227Z,31.30
2018-07-26T19:50:43.834Z,31.10
2018-07-26T19:53:11.456Z,31.12
2018-07-26T19:55:39.160Z,31.23
2018-07-26T19:58:06.821Z,31.17
2018-07-26T20:00:34.460Z,31.04
2018-07-26T20:03:02.083Z,30.95
2018-07-26T20:05:29.728Z,30.73
2018-07-26T20:07:57.427Z,30.79
2018-07-26T20:10:25.070Z,30.73
2018-07-26T20:12:52.729Z,30.65
2018-07-26T20:15:20.489Z,30.60
2018-07-26T20:17:48.217Z,30.61
2018-07-26T20:20:15.897Z,30.62
2018-07-26T20:22:43.585Z,30.54
2018-07-26T20:25:11.354Z,30.47
2018-07-26T20:27:39.036Z,30.31
2018-07-26T20:30:08.236Z,30.20
2018-07-26T20:32:36.148Z,30.10
2018-07-26T20:35:04.188Z,30.01
2018-07-26T20:37:31.821Z,29.73
2018-07-26T20:39:59.501Z,29.69
2018-07-26T20:42:27.092Z,29.63
2018-07-26T20:44:54.720Z,29.55
2018-07-26T20:47:22.315Z,29.50
2018-07-26T20:49:50.037Z,29.47
2018-07-26T20:54:39.195Z,29.20
2018-07-26T20:57:06.884Z,28.82
2018-07-26T20:59:34.723Z,28.56
2018-07-26T21:02:02.414Z,28.49
2018-07-26T21:04:30.246Z,28.59
2018-07-26T21:06:58.040Z,28.52
2018-07-26T21:09:25.802Z,28.52
2018-07-26T21:11:53.527Z,28.51
2018-07-26T21:14:21.297Z,28.55
2018-07-26T21:16:49.071Z,28.36
2018-07-26T21:19:16.723Z,28.02
2018-07-26T21:21:44.494Z,27.71
2018-07-26T21:24:12.266Z,27.56
2018-07-26T21:26:40.039Z,27.53
2018-07-26T21:29:07.710Z,27.27
2018-07-26T21:31:35.457Z,27.06
2018-07-26T21:34:03.434Z,26.91
2018-07-26T21:36:31.158Z,26.94
2018-07-26T21:38:58.974Z,26.70
2018-07-26T21:41:26.739Z,26.69
2018-07-26T21:43:54.420Z,26.63
2018-07-26T21:46:22.166Z,26.77
2018-07-26T21:48:49.891Z,26.56
2018-07-26T21:51:17.568Z,26.35
2018-07-26T21:53:45.371Z,26.17
2018-07-26T21:56:13.086Z,25.92
2018-07-26T21:58:40.858Z,26.12
2018-07-26T22:01:08.629Z,26.03
2018-07-26T22:03:36.501Z,26.09
2018-07-26T22:06:04.716Z,25.86
2018-07-26T22:08:32.451Z,26.00
2018-07-26T22:11:00.159Z,25.94
2018-07-26T22:13:49.889Z,25.86
2018-07-26T22:19:44.619Z,25.90
2018-07-26T22:22:12.418Z,25.96
2018-07-26T22:24:40.001Z,25.90
2018-07-26T22:27:07.689Z,25.79
2018-07-26T22:29:35.295Z,25.71
2018-07-26T22:32:02.961Z,25.82
2018-07-26T22:34:30.589Z,25.77
2018-07-26T22:36:58.377Z,25.70
2018-07-26T22:39:26.072Z,25.65
2018-07-26T22:41:53.657Z,25.58
2018-07-26T22:44:21.440Z,25.50
2018-07-26T22:46:49.034Z,25.68
2018-07-26T22:49:16.920Z,25.53
2018-07-26T22:51:44.602Z,25.45
2018-07-26T22:54:12.253Z,25.37
2018-07-26T22:56:39.997Z,25.29
2018-07-26T22:59:07.653Z,25.31
2018-07-26T23:01:35.220Z,25.20
2018-07-26T23:04:02.923Z,25.17
2018-07-26T23:06:30.532Z,25.13
2018-07-26T23:08:58.212Z,25.23
2018-07-26T23:11:25.881Z,25.23
2018-07-26T23:13:53.569Z,25.18
2018-07-26T23:16:21.269Z,25.05
2018-07-26T23:18:48.964Z,24.98
2018-07-26T23:21:16.557Z,24.86
2018-07-26T23:23:44.447Z,24.91
2018-07-26T23:26:12.124Z,24.99
2018-07-26T23:28:39.930Z,25.04
2018-07-26T23:31:07.641Z,25.11
2018-07-26T23:33:35.263Z,25.13
2018-07-26T23:36:02.952Z,25.02
2018-07-26T23:38:30.595Z,25.02
2018-07-26T23:40:58.201Z,25.14
2018-07-26T23:43:25.829Z,25.00
2018-07-26T23:45:53.824Z,24.89
2018-07-26T23:48:21.428Z,24.70
2018-07-26T23:50:49.069Z,24.57
2018-07-26T23:53:16.676Z,24.66
2018-07-26T23:55:44.273Z,24.48
2018-07-26T23:58:12.049Z,24.72
